createdAt,value
2019-01-08T00:02:14.276Z,91.21
2019-01-08T00:04:42.713Z,91.16
2019-01-08T00:07:11.296Z,90.90
2019-01-08T00:09:39.727Z,89.45
2019-01-08T00:12:08.239Z,89.62
2019-01-08T00:14:36.660Z,89.49
2019-01-08T00:17:05.219Z,89.59
2019-01-08T00:19:33.723Z,89.42
2019-01-08T00:22:02.235Z,90.06
2019-01-08T00:24:30.794Z,89.80
2019-01-08T00:26:59.246Z,89.51
2019-01-08T00:29:27.746Z,89.55
2019-01-08T00:31:56.140Z,89.15
2019-01-08T00:34:24.597Z,88.88
2019-01-08T00:36:53.096Z,88.79
2019-01-08T00:39:21.532Z,88.57
2019-01-08T00:41:50.049Z,88.17
2019-01-08T00:44:18.515Z,87.71
2019-01-08T00:46:46.944Z,87.17
2019-01-08T00:49:15.582Z,87.17
2019-01-08T00:51:44.085Z,87.27
2019-01-08T00:54:12.613Z,86.84
2019-01-08T00:56:41.251Z,86.27
2019-01-08T00:59:09.636Z,86.36
2019-01-08T01:01:38.074Z,86.36
2019-01-08T01:04:06.546Z,85.78
2019-01-08T01:06:34.976Z,85.58
2019-01-08T01:09:05.179Z,85.58
2019-01-08T01:11:33.606Z,85.81
2019-01-08T01:14:02.034Z,85.36
2019-01-08T01:16:32.133Z,85.71
2019-01-08T01:19:00.635Z,85.32
2019-01-08T01:21:29.115Z,85.03
2019-01-08T01:23:57.586Z,84.77
2019-01-08T01:26:28.758Z,84.77
2019-01-08T01:29:00.126Z,85.08
2019-01-08T01:31:27.447Z,84.86
2019-01-08T01:33:55.928Z,84.53
2019-01-08T01:36:26.007Z,84.81
2019-01-08T01:38:54.448Z,85.04
2019-01-08T01:41:22.904Z,85.01
2019-01-08T01:43:51.329Z,84.96
2019-01-08T01:46:19.810Z,84.52
2019-01-08T01:48:48.381Z,84.54
2019-01-08T01:51:17.003Z,84.58
2019-01-08T01:53:45.471Z,84.71
2019-01-08T01:56:13.904Z,84.49
2019-01-08T01:58:42.421Z,84.46
2019-01-08T02:01:10.860Z,84.23
2019-01-08T02:03:39.345Z,84.19
2019-01-08T02:06:07.777Z,83.91
2019-01-08T02:08:36.218Z,84.25
2019-01-08T02:11:04.720Z,84.05
2019-01-08T02:13:33.166Z,84.19
2019-01-08T02:16:01.684Z,83.73
2019-01-08T02:18:31.694Z,83.73
2019-01-08T02:21:00.194Z,83.52
2019-01-08T02:23:28.664Z,83.23
2019-01-08T02:25:57.160Z,82.92
2019-01-08T02:28:25.609Z,82.79
2019-01-08T02:30:54.151Z,82.73
2019-01-08T02:33:22.656Z,82.57
2019-01-08T02:35:51.198Z,81.88
2019-01-08T02:38:19.684Z,81.88
2019-01-08T02:40:49.406Z,81.96
2019-01-08T02:43:17.902Z,81.79
2019-01-08T02:45:46.472Z,82.84
2019-01-08T02:48:14.903Z,82.84
2019-01-08T02:50:43.356Z,82.75
2019-01-08T02:53:11.873Z,83.18
2019-01-08T02:55:41.910Z,83.40
2019-01-08T02:58:10.367Z,83.36
2019-01-08T03:00:38.799Z,83.32
2019-01-08T03:03:07.317Z,83.53
2019-01-08T03:05:35.799Z,82.87
2019-01-08T03:08:04.238Z,82.87
2019-01-08T03:10:32.826Z,82.50
2019-01-08T03:13:01.260Z,81.87
2019-01-08T03:15:32.630Z,81.83
2019-01-08T03:18:01.187Z,81.63
2019-01-08T03:20:31.301Z,81.78
2019-01-08T03:22:59.860Z,81.77
2019-01-08T03:25:39.345Z,81.53
2019-01-08T03:28:07.804Z,81.25
2019-01-08T03:30:36.390Z,80.91
2019-01-08T03:33:04.923Z,81.47
2019-01-08T03:35:33.462Z,80.92
2019-01-08T03:38:01.955Z,80.33
2019-01-08T03:40:30.518Z,80.40
2019-01-08T03:42:59.013Z,79.87
2019-01-08T03:45:27.513Z,79.87
2019-01-08T03:47:56.039Z,79.49
2019-01-08T03:50:24.477Z,79.85
2019-01-08T03:52:52.926Z,80.46
2019-01-08T03:55:21.525Z,80.83
2019-01-08T03:57:49.966Z,82.27
2019-01-08T04:00:18.485Z,82.27
2019-01-08T04:02:46.928Z,82.27
2019-01-08T04:05:15.494Z,82.10
2019-01-08T04:07:44.099Z,83.22
2019-01-08T04:10:12.566Z,84.04
2019-01-08T04:12:41.217Z,84.66
2019-01-08T04:15:09.799Z,85.65
2019-01-08T04:17:38.201Z,87.34
2019-01-08T04:20:06.811Z,87.31
2019-01-08T04:22:35.240Z,88.40
2019-01-08T04:25:03.811Z,86.86
2019-01-08T04:27:32.273Z,86.86
2019-01-08T04:30:00.731Z,85.21
2019-01-08T04:32:29.157Z,85.88
2019-01-08T04:34:57.612Z,85.21
2019-01-08T04:37:26.033Z,85.19
2019-01-08T04:39:54.477Z,85.14
2019-01-08T04:42:23.001Z,85.14
2019-01-08T04:44:51.459Z,84.53
2019-01-08T04:47:19.936Z,84.28
2019-01-08T04:49:48.588Z,84.02
2019-01-08T04:52:16.988Z,84.42
2019-01-08T04:54:45.504Z,84.35
2019-01-08T04:57:14.068Z,83.95
2019-01-08T04:59:42.747Z,83.65
2019-01-08T05:02:11.244Z,83.65
2019-01-08T05:04:39.873Z,84.09
2019-01-08T05:07:08.394Z,84.60
2019-01-08T05:09:36.824Z,84.60
2019-01-08T05:12:05.374Z,84.60
2019-01-08T05:14:33.805Z,84.31
2019-01-08T05:17:02.234Z,84.18
2019-01-08T05:19:30.684Z,84.15
2019-01-08T05:21:59.126Z,83.54
2019-01-08T05:24:27.567Z,83.74
2019-01-08T05:26:56.050Z,83.78
2019-01-08T05:29:24.517Z,83.75
2019-01-08T05:31:55.738Z,83.96
2019-01-08T05:34:24.245Z,83.96
2019-01-08T05:36:52.725Z,84.80
2019-01-08T05:39:21.190Z,84.61
2019-01-08T05:41:49.679Z,84.21
2019-01-08T05:44:19.020Z,83.94
2019-01-08T05:46:47.531Z,83.84
2019-01-08T05:49:16.056Z,83.02
2019-01-08T05:51:46.139Z,82.96
2019-01-08T05:54:14.566Z,82.67
2019-01-08T05:56:42.991Z,82.45
2019-01-08T05:59:11.510Z,82.29
2019-01-08T06:01:39.990Z,82.14
2019-01-08T06:04:09.019Z,82.01
2019-01-08T06:06:40.103Z,81.98
2019-01-08T06:09:08.533Z,81.28
2019-01-08T06:11:37.112Z,81.82
2019-01-08T06:14:05.611Z,81.46
2019-01-08T06:16:34.056Z,81.69
2019-01-08T06:19:02.523Z,82.29
2019-01-08T06:21:31.034Z,82.28
2019-01-08T06:23:59.960Z,82.18
2019-01-08T06:26:32.885Z,81.68
2019-01-08T06:29:00.872Z,81.65
2019-01-08T06:31:33.818Z,81.51
2019-01-08T06:34:03.116Z,81.25
2019-01-08T06:36:31.641Z,81.55
2019-01-08T06:39:00.093Z,81.00
2019-01-08T06:41:28.510Z,81.30
2019-01-08T06:43:56.949Z,81.48
2019-01-08T06:46:25.452Z,81.60
2019-01-08T06:48:53.958Z,81.89
2019-01-08T06:51:22.463Z,82.23
2019-01-08T06:53:51.038Z,82.27
2019-01-08T06:56:19.509Z,82.20
2019-01-08T06:58:47.974Z,82.57
2019-01-08T07:01:16.420Z,82.61
2019-01-08T07:03:47.891Z,82.80
2019-01-08T07:06:16.332Z,82.39
2019-01-08T07:08:44.791Z,81.81
2019-01-08T07:11:13.235Z,81.38
2019-01-08T07:13:41.694Z,81.32
2019-01-08T07:16:10.114Z,80.82
2019-01-08T07:18:38.564Z,80.52
2019-01-08T07:21:07.124Z,80.41
2019-01-08T07:23:35.618Z,80.31
2019-01-08T07:26:04.062Z,79.70
2019-01-08T07:28:32.520Z,80.04
2019-01-08T07:31:00.935Z,79.72
2019-01-08T07:33:29.445Z,79.33
2019-01-08T07:35:57.868Z,79.64
2019-01-08T07:38:26.407Z,79.79
2019-01-08T07:40:54.839Z,80.16
2019-01-08T07:43:23.295Z,80.48
2019-01-08T07:45:51.734Z,80.82
2019-01-08T07:48:20.228Z,80.95
2019-01-08T07:50:48.692Z,80.65
2019-01-08T07:53:17.140Z,80.90
2019-01-08T07:55:45.694Z,80.81
2019-01-08T07:58:14.198Z,80.64
2019-01-08T08:00:49.916Z,80.29
2019-01-08T08:03:12.830Z,80.06
2019-01-08T08:05:41.279Z,80.07
2019-01-08T08:08:09.725Z,79.78
2019-01-08T08:10:38.225Z,79.75
2019-01-08T08:13:06.728Z,79.96
2019-01-08T08:15:35.308Z,79.96
2019-01-08T08:18:03.795Z,80.19
2019-01-08T08:20:32.379Z,80.27
2019-01-08T08:23:00.877Z,79.91
2019-01-08T08:25:29.321Z,80.09
2019-01-08T08:27:57.760Z,80.33
2019-01-08T08:30:26.377Z,80.33
2019-01-08T08:32:54.814Z,80.01
2019-01-08T08:35:23.351Z,79.88
2019-01-08T08:37:51.883Z,79.74
2019-01-08T08:40:20.314Z,79.41
2019-01-08T08:42:48.889Z,79.35
2019-01-08T08:45:17.375Z,79.39
2019-01-08T08:47:46.265Z,79.18
2019-01-08T08:50:14.851Z,79.18
2019-01-08T08:52:43.309Z,79.10
2019-01-08T08:55:11.731Z,79.12
2019-01-08T08:57:40.295Z,79.07
2019-01-08T09:00:09.260Z,78.55
2019-01-08T09:02:37.697Z,78.55
2019-01-08T09:05:06.191Z,79.95
2019-01-08T09:07:34.625Z,81.48
2019-01-08T09:10:03.072Z,82.42
2019-01-08T09:12:31.516Z,83.53
2019-01-08T09:15:00.091Z,84.25
2019-01-08T09:17:28.551Z,84.08
2019-01-08T09:19:57.012Z,84.99
2019-01-08T09:22:28.506Z,84.99
2019-01-08T09:24:57.088Z,84.75
2019-01-08T09:27:25.627Z,85.22
2019-01-08T09:29:54.055Z,85.46
2019-01-08T09:32:22.795Z,86.12
2019-01-08T09:34:51.201Z,85.38
2019-01-08T09:37:19.637Z,85.96
2019-01-08T09:39:49.604Z,86.38
2019-01-08T09:42:18.035Z,86.36
2019-01-08T09:44:46.562Z,86.91
2019-01-08T09:47:15.001Z,86.98
2019-01-08T09:49:43.442Z,87.43
2019-01-08T09:52:11.908Z,88.01
2019-01-08T09:54:40.382Z,88.18
2019-01-08T09:57:08.882Z,88.26
2019-01-08T09:59:37.361Z,88.21
2019-01-08T10:02:05.802Z,87.98
2019-01-08T10:04:34.329Z,88.41
2019-01-08T10:07:02.885Z,88.52
2019-01-08T10:09:31.350Z,88.60
2019-01-08T10:11:59.769Z,89.04
2019-01-08T10:14:28.207Z,88.36
2019-01-08T10:16:56.610Z,88.30
2019-01-08T10:19:25.067Z,88.54
2019-01-08T10:22:03.619Z,88.47
2019-01-08T10:24:27.741Z,88.96
2019-01-08T10:26:57.695Z,88.76
2019-01-08T10:29:26.912Z,88.60
2019-01-08T10:31:55.337Z,88.62
2019-01-08T10:34:23.794Z,89.09
2019-01-08T10:36:52.284Z,89.49
2019-01-08T10:39:20.723Z,88.58
2019-01-08T10:41:51.678Z,87.40
2019-01-08T10:44:20.141Z,86.27
2019-01-08T10:46:48.553Z,86.18
2019-01-08T10:49:16.999Z,88.18
2019-01-08T10:51:45.472Z,88.29
2019-01-08T10:54:14.148Z,88.59
2019-01-08T10:56:42.707Z,87.95
2019-01-08T10:59:11.212Z,89.61
2019-01-08T11:01:40.794Z,89.64
2019-01-08T11:04:09.432Z,89.98
2019-01-08T11:06:37.848Z,89.39
2019-01-08T11:09:07.190Z,89.85
2019-01-08T11:11:35.551Z,89.97
2019-01-08T11:14:04.066Z,89.92
2019-01-08T11:16:32.572Z,90.39
2019-01-08T11:19:01.014Z,90.79
2019-01-08T11:21:29.553Z,91.02
2019-01-08T11:23:58.002Z,90.33
2019-01-08T11:26:27.079Z,89.99
2019-01-08T11:28:55.555Z,90.28
2019-01-08T11:31:23.976Z,89.59
2019-01-08T11:33:52.437Z,88.51
2019-01-08T11:36:20.960Z,88.51
2019-01-08T11:38:49.415Z,88.30
2019-01-08T11:41:17.921Z,88.30
2019-01-08T11:43:46.400Z,87.79
2019-01-08T11:46:14.938Z,87.69
2019-01-08T11:48:43.397Z,87.90
2019-01-08T11:51:11.899Z,88.88
2019-01-08T11:53:40.336Z,89.18
2019-01-08T11:56:08.782Z,86.92
2019-01-08T11:58:37.230Z,86.19
2019-01-08T12:01:05.668Z,85.93
2019-01-08T12:03:34.170Z,85.85
2019-01-08T12:06:02.602Z,85.20
2019-01-08T12:08:31.045Z,85.96
2019-01-08T12:10:59.641Z,85.51
2019-01-08T12:13:28.083Z,85.36
2019-01-08T12:15:56.712Z,84.95
2019-01-08T12:18:25.318Z,85.43
2019-01-08T12:20:54.884Z,84.75
2019-01-08T12:23:23.420Z,84.46
2019-01-08T12:25:51.867Z,84.34
2019-01-08T12:28:20.418Z,84.38
2019-01-08T12:30:48.841Z,83.15
2019-01-08T12:33:17.255Z,82.99
2019-01-08T12:35:45.691Z,83.37
2019-01-08T12:38:14.195Z,84.22
2019-01-08T12:40:42.694Z,84.37
2019-01-08T12:43:11.158Z,83.52
2019-01-08T12:45:39.701Z,83.50
2019-01-08T12:48:08.140Z,83.74
2019-01-08T12:50:36.581Z,83.83
2019-01-08T12:53:05.018Z,83.27
2019-01-08T12:55:33.528Z,82.71
2019-01-08T12:58:02.034Z,82.56
2019-01-08T13:00:30.595Z,81.93
2019-01-08T13:02:59.092Z,81.84
2019-01-08T13:05:27.606Z,81.16
2019-01-08T13:07:56.120Z,81.00
2019-01-08T13:10:24.576Z,80.76
2019-01-08T13:12:53.073Z,80.99
2019-01-08T13:15:21.527Z,81.08
2019-01-08T13:17:50.095Z,80.82
2019-01-08T13:20:18.987Z,81.26
2019-01-08T13:22:47.514Z,81.49
2019-01-08T13:25:15.934Z,79.59
2019-01-08T13:27:44.563Z,79.62
2019-01-08T13:30:13.141Z,78.92
2019-01-08T13:32:41.560Z,78.42
2019-01-08T13:35:10.325Z,78.72
2019-01-08T13:37:38.753Z,79.30
2019-01-08T13:40:07.495Z,79.16
2019-01-08T13:42:36.047Z,79.16
2019-01-08T13:45:05.939Z,79.22
2019-01-08T13:47:34.358Z,79.61
2019-01-08T13:50:02.873Z,80.08
2019-01-08T13:52:31.334Z,80.27
2019-01-08T13:55:01.204Z,80.06
2019-01-08T13:57:30.038Z,80.54
2019-01-08T13:59:58.465Z,80.02
2019-01-08T14:02:31.891Z,79.94
2019-01-08T14:04:57.122Z,80.55
2019-01-08T14:07:25.563Z,80.78
2019-01-08T14:09:54.002Z,81.03
2019-01-08T14:12:22.467Z,81.29
2019-01-08T14:14:52.399Z,80.98
2019-01-08T14:17:20.879Z,82.11
2019-01-08T14:19:49.409Z,82.11
2019-01-08T14:22:18.056Z,82.66
2019-01-08T14:24:47.941Z,81.84
2019-01-08T14:27:16.446Z,81.81
2019-01-08T14:29:44.966Z,81.83
2019-01-08T14:32:13.437Z,81.80
2019-01-08T14:34:41.865Z,81.71
2019-01-08T14:37:10.419Z,81.67
2019-01-08T14:39:38.852Z,81.36
2019-01-08T14:42:07.364Z,80.33
2019-01-08T14:44:35.844Z,79.83
2019-01-08T14:47:04.413Z,79.95
2019-01-08T14:49:32.831Z,79.14
2019-01-08T14:52:01.259Z,79.31
2019-01-08T14:54:29.691Z,78.51
2019-01-08T14:56:58.144Z,78.52
2019-01-08T14:59:26.665Z,78.42
2019-01-08T15:01:55.111Z,78.71
2019-01-08T15:04:23.589Z,78.22
2019-01-08T15:06:52.120Z,78.51
2019-01-08T15:09:20.566Z,78.67
2019-01-08T15:11:49.128Z,78.43
2019-01-08T15:14:17.568Z,78.66
2019-01-08T15:16:46.416Z,78.33
2019-01-08T15:19:14.833Z,78.76
2019-01-08T15:21:43.281Z,78.70
2019-01-08T15:24:11.742Z,78.25
2019-01-08T15:26:40.245Z,78.92
2019-01-08T15:29:08.786Z,78.61
2019-01-08T15:31:37.231Z,78.81
2019-01-08T15:34:05.814Z,78.62
2019-01-08T15:36:34.458Z,79.18
2019-01-08T15:39:03.466Z,79.29
2019-01-08T15:41:31.939Z,79.57
2019-01-08T15:44:00.544Z,79.70
2019-01-08T15:46:29.156Z,80.60
2019-01-08T15:48:57.861Z,80.57
2019-01-08T15:51:26.590Z,80.58
2019-01-08T15:53:55.053Z,80.54
2019-01-08T15:56:24.654Z,80.84
2019-01-08T15:58:53.055Z,81.15
2019-01-08T16:01:21.475Z,81.21
2019-01-08T16:03:49.901Z,81.20
2019-01-08T16:06:18.464Z,81.38
2019-01-08T16:08:46.895Z,81.51
2019-01-08T16:11:15.431Z,80.90
2019-01-08T16:13:43.856Z,80.81
2019-01-08T16:16:12.335Z,81.04
2019-01-08T16:18:40.765Z,80.88
2019-01-08T16:21:09.248Z,80.89
2019-01-08T16:23:37.771Z,81.04
2019-01-08T16:26:06.356Z,81.02
2019-01-08T16:28:35.062Z,81.23
2019-01-08T16:31:03.796Z,81.78
2019-01-08T16:33:32.488Z,82.73
2019-01-08T16:36:00.931Z,82.82
2019-01-08T16:38:29.381Z,82.52
2019-01-08T16:40:57.817Z,83.11
2019-01-08T16:43:26.327Z,82.99
2019-01-08T16:45:54.785Z,83.27
2019-01-08T16:48:23.324Z,83.44
2019-01-08T16:50:51.999Z,82.90
2019-01-08T16:53:20.453Z,82.82
2019-01-08T16:55:48.882Z,82.23
2019-01-08T16:58:17.393Z,82.66
2019-01-08T17:00:46.018Z,82.76
2019-01-08T17:03:14.882Z,82.33
2019-01-08T17:05:43.428Z,83.09
2019-01-08T17:08:13.495Z,83.16
2019-01-08T17:10:41.998Z,83.72
2019-01-08T17:13:10.651Z,83.69
2019-01-08T17:15:39.359Z,84.26
2019-01-08T17:18:07.797Z,84.39
2019-01-08T17:20:36.240Z,84.54
2019-01-08T17:23:04.879Z,84.83
2019-01-08T17:25:33.296Z,84.51
2019-01-08T17:28:01.745Z,84.21
2019-01-08T17:30:30.392Z,84.22
2019-01-08T17:32:58.994Z,83.76
2019-01-08T17:35:27.511Z,82.76
2019-01-08T17:37:55.962Z,83.05
2019-01-08T17:40:24.419Z,82.75
2019-01-08T17:42:52.917Z,83.04
2019-01-08T17:45:21.538Z,82.92
2019-01-08T17:47:57.550Z,83.17
2019-01-08T17:50:25.979Z,82.81
2019-01-08T17:52:54.445Z,82.71
2019-01-08T17:55:23.011Z,81.97
2019-01-08T17:57:53.207Z,80.46
2019-01-08T18:00:21.796Z,80.06
2019-01-08T18:02:58.843Z,79.35
2019-01-08T18:05:22.632Z,79.14
2019-01-08T18:07:51.131Z,78.14
2019-01-08T18:10:19.892Z,77.41
2019-01-08T18:12:48.729Z,77.54
2019-01-08T18:15:17.164Z,77.26
2019-01-08T18:17:45.612Z,76.95
2019-01-08T18:20:14.119Z,73.91
2019-01-08T18:22:42.554Z,74.55
2019-01-08T18:25:10.988Z,74.43
2019-01-08T18:27:39.455Z,74.35
2019-01-08T18:30:08.735Z,74.33
2019-01-08T18:32:37.249Z,73.24
2019-01-08T18:35:05.774Z,72.79
2019-01-08T18:37:34.263Z,73.06
2019-01-08T18:40:03.074Z,72.33
2019-01-08T18:42:31.528Z,72.68
2019-01-08T18:45:00.303Z,72.50
2019-01-08T18:47:29.031Z,72.67
2019-01-08T18:50:02.960Z,72.62
2019-01-08T18:52:32.272Z,72.73
2019-01-08T18:55:00.849Z,72.65
2019-01-08T18:57:29.338Z,72.52
2019-01-08T18:59:57.926Z,73.13
2019-01-08T19:02:26.498Z,73.74
2019-01-08T19:04:54.967Z,73.85
2019-01-08T19:07:23.437Z,74.80
2019-01-08T19:09:56.507Z,75.25
2019-01-08T19:12:24.899Z,75.74
2019-01-08T19:14:53.339Z,76.11
2019-01-08T19:17:23.000Z,76.80
2019-01-08T19:19:51.400Z,77.34
2019-01-08T19:22:21.368Z,77.71
2019-01-08T19:24:50.890Z,77.76
2019-01-08T19:27:19.428Z,78.27
2019-01-08T19:29:49.032Z,78.64
2019-01-08T19:32:17.467Z,78.99
2019-01-08T19:34:46.100Z,80.46
2019-01-08T19:37:14.556Z,80.70
2019-01-08T19:39:43.086Z,81.29
2019-01-08T19:42:13.269Z,82.00
2019-01-08T19:44:41.682Z,82.70
2019-01-08T19:47:10.542Z,82.98
2019-01-08T19:49:39.473Z,83.35
2019-01-08T19:52:09.214Z,83.97
2019-01-08T19:54:40.580Z,83.56
2019-01-08T19:57:09.504Z,82.91
2019-01-08T19:59:39.155Z,82.96
2019-01-08T20:02:07.838Z,82.58
2019-01-08T20:04:36.523Z,82.17
2019-01-08T20:07:04.914Z,82.18
2019-01-08T20:09:33.358Z,81.48
2019-01-08T20:12:01.881Z,81.30
2019-01-08T20:14:30.319Z,80.53
2019-01-08T20:16:58.785Z,80.69
2019-01-08T20:19:27.214Z,80.27
2019-01-08T20:21:55.771Z,79.76
2019-01-08T20:24:24.205Z,79.07
2019-01-08T20:26:52.652Z,78.58
2019-01-08T20:29:21.107Z,78.77
2019-01-08T20:31:49.540Z,78.42
2019-01-08T20:34:26.558Z,78.41
2019-01-08T20:36:49.212Z,78.01
2019-01-08T20:39:17.860Z,79.74
2019-01-08T20:41:46.972Z,81.77
2019-01-08T20:44:15.833Z,82.39
2019-01-08T20:46:44.804Z,83.29
2019-01-08T20:49:13.472Z,83.81
2019-01-08T20:51:41.897Z,84.74
2019-01-08T20:54:10.346Z,85.01
2019-01-08T20:56:39.100Z,84.15
2019-01-08T20:59:09.261Z,82.31
2019-01-08T21:01:39.285Z,81.11
2019-01-08T21:04:10.228Z,79.46
2019-01-08T21:06:43.788Z,79.22
2019-01-08T21:09:12.264Z,77.91
2019-01-08T21:11:41.737Z,77.08
2019-01-08T21:14:10.273Z,76.92
2019-01-08T21:16:38.728Z,77.03
2019-01-08T21:19:08.478Z,76.94
2019-01-08T21:21:36.908Z,76.40
2019-01-08T21:24:05.361Z,76.60
2019-01-08T21:26:33.823Z,75.83
2019-01-08T21:29:02.364Z,76.01
2019-01-08T21:31:30.797Z,74.32
2019-01-08T21:33:59.397Z,74.32
2019-01-08T21:36:28.147Z,74.52
2019-01-08T21:38:57.224Z,74.42
2019-01-08T21:41:25.947Z,74.65
2019-01-08T21:43:56.070Z,74.08
2019-01-08T21:46:25.795Z,74.59
2019-01-08T21:48:54.403Z,74.35
2019-01-08T21:51:24.841Z,74.22
2019-01-08T21:53:55.526Z,74.33
2019-01-08T21:56:27.698Z,74.51
2019-01-08T21:58:58.976Z,74.67
2019-01-08T22:01:29.354Z,74.68
2019-01-08T22:03:59.712Z,74.37
2019-01-08T22:06:28.973Z,74.57
2019-01-08T22:08:59.796Z,75.18
2019-01-08T22:11:28.548Z,74.92
2019-01-08T22:13:57.246Z,75.12
2019-01-08T22:16:28.862Z,75.10
2019-01-08T22:18:57.523Z,75.26
2019-01-08T22:21:25.958Z,75.72
2019-01-08T22:23:54.652Z,75.90
2019-01-08T22:26:23.168Z,75.63
2019-01-08T22:28:52.279Z,75.70
2019-01-08T22:31:20.734Z,76.15
2019-01-08T22:33:49.232Z,75.95
2019-01-08T22:36:17.666Z,75.18
2019-01-08T22:38:46.361Z,74.73
2019-01-08T22:41:14.858Z,74.69
2019-01-08T22:43:43.320Z,74.19
2019-01-08T22:46:12.105Z,73.89
2019-01-08T22:48:40.553Z,73.46
2019-01-08T22:51:09.066Z,73.61
2019-01-08T22:53:37.814Z,72.97
2019-01-08T22:56:06.510Z,71.99
2019-01-08T22:58:35.178Z,71.30
2019-01-08T23:01:11.519Z,70.48
2019-01-08T23:03:41.764Z,70.58
2019-01-08T23:06:10.848Z,70.57
2019-01-08T23:08:39.543Z,71.01
2019-01-08T23:11:08.242Z,71.20
2019-01-08T23:13:36.939Z,71.83
2019-01-08T23:16:05.534Z,72.04
2019-01-08T23:18:34.067Z,72.23
2019-01-08T23:21:07.578Z,72.53
2019-01-08T23:23:36.017Z,72.83
2019-01-08T23:26:04.691Z,72.94
2019-01-08T23:28:33.177Z,72.89
2019-01-08T23:31:01.718Z,72.08
2019-01-08T23:33:33.101Z,71.73
2019-01-08T23:36:01.625Z,71.59
2019-01-08T23:38:30.126Z,71.69
2019-01-08T23:40:58.618Z,71.61
2019-01-08T23:43:27.165Z,71.56
2019-01-08T23:45:55.594Z,71.13
2019-01-08T23:48:24.147Z,71.48
2019-01-08T23:50:54.200Z,71.15
2019-01-08T23:53:25.725Z,71.01
2019-01-08T23:55:55.385Z,71.11
2019-01-08T23:58:24.025Z,70.95
